createdAt,value
2023-01-20T00:00:44.373Z,-5.10
2023-01-20T00:03:12.310Z,-5.30
2023-01-20T00:05:40.263Z,-5.30
2023-01-20T00:08:08.161Z,-5.20
2023-01-20T00:10:38.451Z,-5.20
2023-01-20T00:13:06.357Z,-5.20
2023-01-20T00:15:34.311Z,-5.20
2023-01-20T00:18:03.547Z,-5.20
2023-01-20T00:20:31.571Z,-5.20
2023-01-20T00:22:59.453Z,-5.10
2023-01-20T00:25:27.379Z,-5.10
2023-01-20T00:27:55.309Z,-5.10
2023-01-20T00:30:23.282Z,-5.20
2023-01-20T00:32:51.944Z,-5.20
2023-01-20T00:35:21.216Z,-5.30
2023-01-20T00:37:49.115Z,-5.40
2023-01-20T00:40:17.885Z,-5.50
2023-01-20T00:42:45.775Z,-5.50
2023-01-20T00:45:13.907Z,-5.50
2023-01-20T00:47:42.002Z,-5.50
2023-01-20T00:50:10.973Z,-5.70
2023-01-20T00:52:40.243Z,-5.80
2023-01-20T00:55:08.624Z,-5.90
2023-01-20T00:57:36.596Z,-6.00
2023-01-20T01:00:05.330Z,-6.00
2023-01-20T01:02:38.088Z,-6.00
2023-01-20T01:05:06.632Z,-5.90
2023-01-20T01:07:34.913Z,-5.90
2023-01-20T01:10:04.363Z,-5.90
2023-01-20T01:12:32.271Z,-5.90
2023-01-20T01:15:00.157Z,-6.00
2023-01-20T01:17:28.077Z,-5.90
2023-01-20T01:19:55.982Z,-5.80
2023-01-20T01:22:24.010Z,-5.80
2023-01-20T01:24:51.992Z,-5.90
2023-01-20T01:27:21.264Z,-6.00
2023-01-20T01:29:49.189Z,-6.00
2023-01-20T01:32:17.409Z,-6.10
2023-01-20T01:34:45.325Z,-6.10
2023-01-20T01:37:13.217Z,-6.20
2023-01-20T01:39:41.176Z,-6.30
2023-01-20T01:42:12.935Z,-6.40
2023-01-20T01:45:14.314Z,-6.40
2023-01-20T01:47:47.432Z,-6.50
2023-01-20T01:50:18.952Z,-6.40
2023-01-20T01:52:51.462Z,-6.40
2023-01-20T01:55:22.118Z,-6.30
2023-01-20T01:57:50.957Z,-6.20
2023-01-20T02:00:18.978Z,-6.20
2023-01-20T02:02:48.304Z,-6.20
2023-01-20T02:05:17.806Z,-6.20
2023-01-20T02:07:48.619Z,-6.20
2023-01-20T02:10:17.416Z,-6.20
2023-01-20T02:12:49.616Z,-6.10
2023-01-20T02:15:22.769Z,-6.10
2023-01-20T02:18:07.043Z,-6.10
2023-01-20T02:20:57.449Z,-6.00
2023-01-20T02:23:45.512Z,-6.00
2023-01-20T02:26:36.049Z,-6.00
2023-01-20T02:29:26.119Z,-6.20
2023-01-20T02:32:20.961Z,-6.30
2023-01-20T02:34:55.627Z,-6.10
2023-01-20T02:37:26.323Z,-6.00
2023-01-20T02:40:01.697Z,-6.10
2023-01-20T02:42:39.432Z,-6.20
2023-01-20T02:45:15.898Z,-6.40
2023-01-20T02:47:52.974Z,-6.50
2023-01-20T02:50:26.003Z,-6.60
2023-01-20T02:52:57.847Z,-6.70
2023-01-20T02:55:30.626Z,-6.50
2023-01-20T02:58:02.818Z,-6.40
2023-01-20T03:00:36.027Z,-6.20
2023-01-20T03:03:09.915Z,-6.10
2023-01-20T03:05:43.946Z,-6.10
2023-01-20T03:08:15.224Z,-6.10
2023-01-20T03:10:44.012Z,-6.20
2023-01-20T03:13:16.600Z,-6.10
2023-01-20T03:15:54.857Z,-6.10
2023-01-20T03:18:24.528Z,-6.30
2023-01-20T03:20:53.045Z,-6.50
2023-01-20T03:23:21.182Z,-6.60
2023-01-20T03:25:51.397Z,-6.70
2023-01-20T03:28:19.487Z,-6.50
2023-01-20T03:30:47.471Z,-6.30
2023-01-20T03:33:17.199Z,-6.20
2023-01-20T03:35:46.584Z,-6.10
2023-01-20T03:38:14.583Z,-6.10
2023-01-20T03:40:49.498Z,-6.30
2023-01-20T03:43:23.580Z,-6.50
2023-01-20T03:45:56.223Z,-6.50
2023-01-20T03:48:32.137Z,-6.40
2023-01-20T03:51:10.519Z,-6.40
2023-01-20T03:53:45.326Z,-6.40
2023-01-20T03:56:22.327Z,-6.30
2023-01-20T03:58:53.047Z,-6.40
2023-01-20T04:01:23.586Z,-6.40
2023-01-20T04:03:54.955Z,-6.50
2023-01-20T04:06:27.291Z,-6.50
2023-01-20T04:08:57.526Z,-6.40
2023-01-20T04:11:26.096Z,-6.40
2023-01-20T04:13:54.268Z,-6.30
2023-01-20T04:16:23.706Z,-6.40
2023-01-20T04:18:52.589Z,-6.40
2023-01-20T04:21:27.987Z,-6.30
2023-01-20T04:24:01.615Z,-6.40
2023-01-20T04:26:29.597Z,-6.40
2023-01-20T04:28:57.569Z,-6.40
2023-01-20T04:31:31.170Z,-6.40
2023-01-20T04:33:59.561Z,-6.50
2023-01-20T04:36:29.023Z,-6.70
2023-01-20T04:38:57.177Z,-6.80
2023-01-20T04:41:25.203Z,-6.70
2023-01-20T04:43:53.215Z,-6.60
2023-01-20T04:46:21.436Z,-6.60
2023-01-20T04:48:49.413Z,-6.80
2023-01-20T04:51:17.444Z,-6.70
2023-01-20T04:53:46.722Z,-6.70
2023-01-20T04:56:16.321Z,-6.60
2023-01-20T04:58:44.478Z,-6.60
2023-01-20T05:01:12.787Z,-6.70
2023-01-20T05:03:40.717Z,-6.70
2023-01-20T05:06:10.938Z,-6.80
2023-01-20T05:08:38.944Z,-6.80
2023-01-20T05:11:08.200Z,-6.80
2023-01-20T05:13:39.186Z,-6.80
2023-01-20T05:16:07.960Z,-6.90
2023-01-20T05:18:36.275Z,-6.90
2023-01-20T05:21:05.415Z,-6.80
2023-01-20T05:23:33.650Z,-6.70
2023-01-20T05:26:01.784Z,-6.80
2023-01-20T05:28:31.099Z,-6.80
2023-01-20T05:30:59.122Z,-6.80
2023-01-20T05:33:27.062Z,-6.70
2023-01-20T05:35:56.086Z,-6.70
2023-01-20T05:38:24.191Z,-6.70
2023-01-20T05:40:52.170Z,-6.60
2023-01-20T05:43:20.173Z,-6.70
2023-01-20T05:45:49.442Z,-6.60
2023-01-20T05:48:17.408Z,-6.50
2023-01-20T05:50:45.871Z,-6.50
2023-01-20T05:53:13.796Z,-6.30
2023-01-20T05:55:41.738Z,-6.30
2023-01-20T05:58:09.949Z,-6.40
2023-01-20T06:00:38.851Z,-6.40
2023-01-20T06:03:08.347Z,-6.50
2023-01-20T06:05:36.308Z,-6.40
2023-01-20T06:08:04.199Z,-6.40
2023-01-20T06:10:32.196Z,-6.40
2023-01-20T06:13:00.117Z,-6.50
2023-01-20T06:15:29.497Z,-6.40
2023-01-20T06:17:57.455Z,-6.40
2023-01-20T06:20:26.793Z,-6.30
2023-01-20T06:22:56.863Z,-6.30
2023-01-20T06:25:24.915Z,-6.20
2023-01-20T06:27:52.844Z,-6.20
2023-01-20T06:30:21.017Z,-6.40
2023-01-20T06:32:49.331Z,-6.60
2023-01-20T06:35:17.570Z,-6.70
2023-01-20T06:37:46.857Z,-6.70
2023-01-20T06:40:15.635Z,-6.60
2023-01-20T06:42:43.550Z,-6.40
2023-01-20T06:45:12.431Z,-6.40
2023-01-20T06:47:40.597Z,-6.40
2023-01-20T06:50:09.474Z,-6.40
2023-01-20T06:52:37.411Z,-6.40
2023-01-20T06:55:07.342Z,-6.40
2023-01-20T06:57:35.292Z,-6.20
2023-01-20T07:00:03.638Z,-6.20
2023-01-20T07:02:31.587Z,-6.20
2023-01-20T07:05:00.381Z,-6.20
2023-01-20T07:07:28.398Z,-6.10
2023-01-20T07:09:56.391Z,-6.20
2023-01-20T07:12:25.741Z,-6.30
2023-01-20T07:14:54.092Z,-6.20
2023-01-20T07:17:22.173Z,-5.90
2023-01-20T07:19:50.055Z,-5.70
2023-01-20T07:22:18.075Z,-5.70
2023-01-20T07:24:46.279Z,-5.60
2023-01-20T07:27:15.014Z,-5.50
2023-01-20T07:29:44.320Z,-5.40
2023-01-20T07:32:12.344Z,-5.40
2023-01-20T07:34:40.258Z,-5.20
2023-01-20T07:37:08.154Z,-5.00
2023-01-20T07:39:36.422Z,-4.90
2023-01-20T07:42:04.685Z,-4.90
2023-01-20T07:44:33.839Z,-5.10
2023-01-20T07:47:03.145Z,-5.10
2023-01-20T07:49:31.060Z,-5.00
2023-01-20T07:51:59.030Z,-4.90
2023-01-20T07:54:26.999Z,-4.80
2023-01-20T07:56:54.995Z,-4.70
2023-01-20T07:59:22.964Z,-4.60
2023-01-20T08:01:51.518Z,-4.50
2023-01-20T08:04:20.824Z,-4.50
2023-01-20T08:06:48.803Z,-4.50
2023-01-20T08:09:16.753Z,-4.60
2023-01-20T08:11:44.686Z,-4.40
2023-01-20T08:14:12.626Z,-4.50
2023-01-20T08:16:40.808Z,-4.40
2023-01-20T08:19:08.944Z,-4.30
2023-01-20T08:21:38.902Z,-4.10
2023-01-20T08:24:07.093Z,-4.00
2023-01-20T08:26:35.183Z,-3.90
2023-01-20T08:29:04.411Z,-3.80
2023-01-20T08:31:32.409Z,-4.00
2023-01-20T08:34:00.585Z,-3.70
2023-01-20T08:36:31.299Z,-3.60
2023-01-20T08:39:02.713Z,-3.30
2023-01-20T08:41:32.914Z,-3.00
2023-01-20T08:44:04.365Z,-2.60
2023-01-20T08:46:32.814Z,-2.50
2023-01-20T08:49:00.794Z,-2.50
2023-01-20T08:51:30.567Z,-2.60
2023-01-20T08:54:00.750Z,-2.70
2023-01-20T08:56:29.791Z,-2.80
2023-01-20T08:58:58.549Z,-2.80
2023-01-20T09:01:28.814Z,-2.80
2023-01-20T09:04:06.859Z,-2.90
2023-01-20T09:06:40.769Z,-3.00
2023-01-20T09:09:10.187Z,-3.20
2023-01-20T09:11:39.497Z,-2.90
2023-01-20T09:14:07.895Z,-3.10
2023-01-20T09:16:35.980Z,-3.00
2023-01-20T09:19:04.175Z,-2.70
2023-01-20T09:21:32.687Z,-2.30
2023-01-20T09:24:01.244Z,-2.00
2023-01-20T09:26:38.335Z,-2.10
2023-01-20T09:29:10.343Z,-1.90
2023-01-20T09:31:39.874Z,-1.50
2023-01-20T09:34:08.057Z,-1.30
2023-01-20T09:36:36.121Z,-1.30
2023-01-20T09:39:24.243Z,-1.10
2023-01-20T09:42:11.114Z,-0.90
2023-01-20T09:44:50.921Z,-0.60
2023-01-20T09:47:31.366Z,-0.60
2023-01-20T09:50:37.482Z,-0.40
2023-01-20T09:53:15.321Z,-0.50
2023-01-20T09:55:49.029Z,-0.60
2023-01-20T09:58:26.627Z,-0.70
2023-01-20T10:01:01.699Z,-0.80
2023-01-20T10:03:37.133Z,-0.70
2023-01-20T10:06:11.560Z,-0.80
2023-01-20T10:09:03.690Z,-0.80
2023-01-20T10:11:38.915Z,-0.90
2023-01-20T10:14:15.210Z,-1.10
2023-01-20T10:16:49.320Z,-1.10
2023-01-20T10:19:27.273Z,-1.40
2023-01-20T10:22:02.117Z,-1.30
2023-01-20T10:24:35.039Z,-1.30
2023-01-20T10:27:04.373Z,-1.30
2023-01-20T10:29:36.962Z,-1.10
2023-01-20T10:32:09.443Z,-0.80
2023-01-20T10:34:43.453Z,-0.90
2023-01-20T10:37:12.801Z,-1.00
2023-01-20T10:39:46.943Z,-1.20
2023-01-20T10:42:17.134Z,-1.30
2023-01-20T10:44:49.266Z,-1.40
2023-01-20T10:47:24.848Z,-1.20
2023-01-20T10:50:16.877Z,-0.90
2023-01-20T10:53:08.822Z,-0.70
2023-01-20T10:55:52.470Z,-0.70
2023-01-20T10:58:25.245Z,-0.60
2023-01-20T11:00:55.477Z,-0.70
2023-01-20T11:03:24.498Z,-0.60
2023-01-20T11:05:53.451Z,-0.60
2023-01-20T11:08:23.658Z,-0.80
2023-01-20T11:10:55.176Z,-0.80
2023-01-20T11:13:23.162Z,-0.80
2023-01-20T11:15:54.392Z,-1.00
2023-01-20T11:18:27.952Z,-0.80
2023-01-20T11:20:59.197Z,-0.70
2023-01-20T11:23:35.215Z,-0.60
2023-01-20T11:26:09.976Z,-0.70
2023-01-20T11:28:51.772Z,-0.90
2023-01-20T11:31:20.890Z,-0.80
2023-01-20T11:34:01.776Z,-0.80
2023-01-20T11:36:30.554Z,-0.80
2023-01-20T11:38:59.553Z,-0.80
2023-01-20T11:41:29.192Z,-0.70
2023-01-20T11:43:59.365Z,-0.70
2023-01-20T11:46:30.647Z,-0.60
2023-01-20T11:49:15.484Z,-0.50
2023-01-20T11:51:49.714Z,-0.60
2023-01-20T11:54:19.827Z,-0.50
2023-01-20T11:56:52.216Z,-0.40
2023-01-20T11:59:29.096Z,-0.30
2023-01-20T12:02:01.656Z,-0.60
2023-01-20T12:04:59.148Z,-0.60
2023-01-20T12:07:31.611Z,-0.60
2023-01-20T12:10:04.449Z,-0.80
2023-01-20T12:12:40.607Z,-0.90
2023-01-20T12:15:16.423Z,-0.90
2023-01-20T12:17:55.145Z,-0.70
2023-01-20T12:20:31.003Z,-0.70
2023-01-20T12:23:14.109Z,-0.70
2023-01-20T12:25:50.978Z,-0.90
2023-01-20T12:28:22.665Z,-0.80
2023-01-20T12:30:58.935Z,-1.00
2023-01-20T12:33:29.815Z,-1.00
2023-01-20T12:36:34.915Z,-1.20
2023-01-20T12:39:30.168Z,-1.20
2023-01-20T12:42:26.622Z,-1.00
2023-01-20T12:44:59.383Z,-0.90
2023-01-20T12:47:45.640Z,-0.70
2023-01-20T12:50:24.452Z,-0.70
2023-01-20T12:53:12.534Z,-0.90
2023-01-20T12:55:55.797Z,-0.80
2023-01-20T12:58:36.908Z,-0.60
2023-01-20T13:01:29.423Z,-0.60
2023-01-20T13:04:18.356Z,-0.40
2023-01-20T13:07:14.300Z,-0.40
2023-01-20T13:09:56.174Z,-0.50
2023-01-20T13:12:44.683Z,-0.40
2023-01-20T13:15:22.371Z,-0.40
2023-01-20T13:18:06.331Z,-0.50
2023-01-20T13:20:40.495Z,-0.50
2023-01-20T13:23:11.822Z,-0.50
2023-01-20T13:25:41.750Z,-0.30
2023-01-20T13:28:17.080Z,-0.40
2023-01-20T13:30:48.024Z,-0.40
2023-01-20T13:33:19.104Z,-0.30
2023-01-20T13:35:50.093Z,-0.20
2023-01-20T13:38:27.878Z,-0.20
2023-01-20T13:41:02.942Z,-0.20
2023-01-20T13:43:49.083Z,-0.20
2023-01-20T13:46:44.710Z,-0.20
2023-01-20T13:49:22.484Z,-0.20
2023-01-20T13:51:50.735Z,-0.20
2023-01-20T13:54:45.165Z,-0.40
2023-01-20T13:57:37.297Z,-0.40
2023-01-20T14:00:18.820Z,-0.30
2023-01-20T14:02:48.733Z,-0.30
2023-01-20T14:05:25.944Z,-0.30
2023-01-20T14:07:54.389Z,-0.30
2023-01-20T14:10:22.407Z,-0.40
2023-01-20T14:12:50.387Z,-0.30
2023-01-20T14:15:33.057Z,-0.30
2023-01-20T14:18:02.012Z,-0.40
2023-01-20T14:20:30.940Z,-0.40
2023-01-20T14:23:28.344Z,-0.40
2023-01-20T14:26:01.377Z,-0.50
2023-01-20T14:28:29.719Z,-0.50
2023-01-20T14:31:21.182Z,-0.40
2023-01-20T14:33:54.770Z,-0.60
2023-01-20T14:36:24.127Z,-0.60
2023-01-20T14:38:58.346Z,-0.60
2023-01-20T14:41:47.367Z,-0.70
2023-01-20T14:44:19.818Z,-0.60
2023-01-20T14:46:51.298Z,-0.60
2023-01-20T14:49:22.333Z,-0.60
2023-01-20T14:51:52.032Z,-0.70
2023-01-20T14:54:40.279Z,-0.70
2023-01-20T14:57:21.912Z,-0.70
2023-01-20T15:00:10.546Z,-0.80
2023-01-20T15:02:44.723Z,-0.90
2023-01-20T15:05:29.353Z,-0.90
2023-01-20T15:08:25.940Z,-1.00
2023-01-20T15:11:21.808Z,-1.00
2023-01-20T15:14:09.977Z,-1.10
2023-01-20T15:16:49.209Z,-1.10
2023-01-20T15:19:40.755Z,-1.10
2023-01-20T15:22:27.652Z,-1.20
2023-01-20T15:24:56.093Z,-1.30
2023-01-20T15:27:38.089Z,-1.50
2023-01-20T15:30:19.818Z,-1.50
2023-01-20T15:32:49.530Z,-1.50
2023-01-20T15:35:22.830Z,-1.50
2023-01-20T15:37:51.470Z,-1.50
2023-01-20T15:40:21.509Z,-1.50
2023-01-20T15:42:50.624Z,-1.50
2023-01-20T15:45:20.001Z,-1.50
2023-01-20T15:47:49.171Z,-1.70
2023-01-20T15:50:22.653Z,-1.80
2023-01-20T15:52:51.560Z,-1.80
2023-01-20T15:55:20.685Z,-1.70
2023-01-20T15:57:52.607Z,-1.70
2023-01-20T16:00:22.510Z,-1.70
2023-01-20T16:02:51.065Z,-1.70
2023-01-20T16:05:22.071Z,-1.70
2023-01-20T16:07:50.276Z,-1.80
2023-01-20T16:10:19.458Z,-1.90
2023-01-20T16:12:48.173Z,-1.90
2023-01-20T16:15:17.917Z,-2.00
2023-01-20T16:17:46.038Z,-2.00
2023-01-20T16:20:21.607Z,-2.10
2023-01-20T16:22:49.575Z,-2.10
2023-01-20T16:25:17.641Z,-2.00
2023-01-20T16:27:45.664Z,-2.00
2023-01-20T16:30:17.238Z,-2.00
2023-01-20T16:32:46.283Z,-1.90
2023-01-20T16:35:15.167Z,-1.90
2023-01-20T16:37:46.577Z,-2.00
2023-01-20T16:40:16.472Z,-2.20
2023-01-20T16:42:44.598Z,-2.40
2023-01-20T16:45:23.939Z,-2.30
2023-01-20T16:47:51.923Z,-2.10
2023-01-20T16:50:20.147Z,-2.20
2023-01-20T16:52:49.464Z,-2.40
2023-01-20T16:55:17.531Z,-2.40
2023-01-20T16:57:45.438Z,-2.50
2023-01-20T17:00:16.206Z,-2.50
2023-01-20T17:02:50.403Z,-2.30
2023-01-20T17:05:22.261Z,-2.30
2023-01-20T17:07:52.272Z,-2.10
2023-01-20T17:10:20.986Z,-2.10
2023-01-20T17:12:49.372Z,-2.00
2023-01-20T17:15:17.358Z,-2.10
2023-01-20T17:17:49.189Z,-2.20
2023-01-20T17:20:17.810Z,-2.20
2023-01-20T17:22:45.960Z,-2.20
2023-01-20T17:25:17.876Z,-2.20
2023-01-20T17:27:46.154Z,-2.20
2023-01-20T17:30:16.132Z,-2.10
2023-01-20T17:32:48.264Z,-2.10
2023-01-20T17:35:17.102Z,-2.10
2023-01-20T17:37:45.093Z,-2.10
2023-01-20T17:40:16.964Z,-2.10
2023-01-20T17:42:46.337Z,-2.10
2023-01-20T17:45:14.280Z,-2.20
2023-01-20T17:47:42.202Z,-2.40
2023-01-20T17:50:11.327Z,-2.50
2023-01-20T17:52:39.322Z,-2.60
2023-01-20T17:55:08.205Z,-2.60
2023-01-20T17:57:38.638Z,-2.70
2023-01-20T18:00:07.824Z,-2.70
2023-01-20T18:02:35.870Z,-2.70
2023-01-20T18:05:04.253Z,-2.70
2023-01-20T18:07:32.973Z,-2.50
2023-01-20T18:10:01.280Z,-2.40
2023-01-20T18:12:29.245Z,-2.40
2023-01-20T18:14:59.030Z,-2.50
2023-01-20T18:17:27.563Z,-2.60
2023-01-20T18:19:55.740Z,-2.40
2023-01-20T18:22:23.789Z,-2.50
2023-01-20T18:24:51.700Z,-2.60
2023-01-20T18:27:19.602Z,-2.50
2023-01-20T18:29:47.632Z,-2.60
2023-01-20T18:32:17.089Z,-2.80
2023-01-20T18:34:45.051Z,-2.80
2023-01-20T18:37:12.968Z,-2.90
2023-01-20T18:39:41.071Z,-2.70
2023-01-20T18:42:08.987Z,-2.70
2023-01-20T18:44:37.076Z,-2.70
2023-01-20T18:47:05.265Z,-2.90
2023-01-20T18:49:34.650Z,-3.00
2023-01-20T18:52:02.667Z,-3.00
2023-01-20T18:54:32.819Z,-2.90
2023-01-20T18:57:00.803Z,-2.80
2023-01-20T18:59:28.803Z,-2.90
2023-01-20T19:01:59.283Z,-2.80
2023-01-20T19:04:27.546Z,-2.70
2023-01-20T19:06:56.932Z,-2.50
2023-01-20T19:09:24.872Z,-2.70
2023-01-20T19:11:53.090Z,-2.70
2023-01-20T19:14:21.139Z,-2.60
2023-01-20T19:16:49.875Z,-2.60
2023-01-20T19:19:19.008Z,-2.50
2023-01-20T19:21:47.185Z,-2.70
2023-01-20T19:24:20.131Z,-2.70
2023-01-20T19:26:48.632Z,-2.90
2023-01-20T19:29:18.755Z,-3.10
2023-01-20T19:31:46.898Z,-3.10
2023-01-20T19:34:14.884Z,-3.00
2023-01-20T19:36:42.857Z,-3.00
2023-01-20T19:39:10.741Z,-2.90
2023-01-20T19:41:40.129Z,-3.00
2023-01-20T19:44:08.331Z,-3.00
2023-01-20T19:46:38.706Z,-3.00
2023-01-20T19:49:06.833Z,-2.90
2023-01-20T19:51:36.277Z,-2.90
2023-01-20T19:54:05.169Z,-2.90
2023-01-20T19:56:35.243Z,-2.80
2023-01-20T19:59:06.270Z,-2.80
2023-01-20T20:01:35.953Z,-2.80
2023-01-20T20:04:06.570Z,-2.70
2023-01-20T20:06:36.662Z,-2.70
2023-01-20T20:09:07.277Z,-2.80
2023-01-20T20:11:35.332Z,-2.90
2023-01-20T20:14:06.838Z,-2.70
2023-01-20T20:16:36.422Z,-2.70
2023-01-20T20:19:04.663Z,-2.70
2023-01-20T20:21:32.617Z,-2.70
2023-01-20T20:24:02.307Z,-2.60
2023-01-20T20:26:33.340Z,-2.70
2023-01-20T20:29:02.921Z,-2.70
2023-01-20T20:31:34.054Z,-2.80
2023-01-20T20:34:03.188Z,-2.70
2023-01-20T20:36:32.840Z,-2.70
2023-01-20T20:39:02.506Z,-2.70
2023-01-20T20:41:31.542Z,-2.80
2023-01-20T20:44:00.563Z,-2.70
2023-01-20T20:46:29.462Z,-2.60
2023-01-20T20:49:00.762Z,-2.60
2023-01-20T20:51:30.914Z,-2.70
2023-01-20T20:54:00.475Z,-2.80
2023-01-20T20:56:31.359Z,-2.60
2023-01-20T20:59:03.151Z,-2.50
2023-01-20T21:01:32.538Z,-2.60
2023-01-20T21:04:01.947Z,-2.70
2023-01-20T21:06:30.620Z,-2.70
2023-01-20T21:08:59.281Z,-2.70
2023-01-20T21:11:27.741Z,-2.50
2023-01-20T21:13:55.859Z,-2.30
2023-01-20T21:16:25.092Z,-2.30
2023-01-20T21:18:56.330Z,-2.20
2023-01-20T21:21:26.804Z,-2.10
2023-01-20T21:23:56.618Z,-2.10
2023-01-20T21:26:28.211Z,-2.00
2023-01-20T21:29:00.162Z,-2.00
2023-01-20T21:31:28.160Z,-1.90
2023-01-20T21:33:58.239Z,-2.00
2023-01-20T21:36:29.142Z,-1.90
2023-01-20T21:38:57.083Z,-2.20
2023-01-20T21:41:25.026Z,-2.00
2023-01-20T21:44:10.570Z,-2.10
2023-01-20T21:46:40.859Z,-2.20
2023-01-20T21:49:27.252Z,-2.10
2023-01-20T21:52:14.530Z,-2.10
2023-01-20T21:54:44.800Z,-2.20
2023-01-20T21:57:12.775Z,-2.20
2023-01-20T21:59:40.750Z,-2.10
2023-01-20T22:02:09.189Z,-2.20
2023-01-20T22:04:39.587Z,-2.10
2023-01-20T22:07:09.177Z,-2.00
2023-01-20T22:09:37.327Z,-2.00
2023-01-20T22:12:05.961Z,-1.90
2023-01-20T22:14:33.931Z,-1.90
2023-01-20T22:17:01.904Z,-2.00
2023-01-20T22:19:29.873Z,-2.00
2023-01-20T22:21:57.897Z,-2.10
2023-01-20T22:24:27.457Z,-2.00
2023-01-20T22:26:55.924Z,-2.00
2023-01-20T22:29:24.274Z,-1.90
2023-01-20T22:31:53.717Z,-1.90
2023-01-20T22:34:22.974Z,-1.90
2023-01-20T22:36:50.876Z,-1.80
2023-01-20T22:39:19.045Z,-1.90
2023-01-20T22:41:48.308Z,-2.00
2023-01-20T22:44:16.575Z,-1.90
2023-01-20T22:46:44.712Z,-1.90
2023-01-20T22:49:13.297Z,-2.00
2023-01-20T22:51:41.259Z,-2.00
2023-01-20T22:54:11.692Z,-2.10
2023-01-20T22:56:40.088Z,-2.10
2023-01-20T22:59:12.852Z,-2.10
2023-01-20T23:01:40.815Z,-2.10
2023-01-20T23:04:08.769Z,-1.90
2023-01-20T23:06:37.960Z,-2.00
2023-01-20T23:09:09.185Z,-2.00
2023-01-20T23:11:39.868Z,-1.90
2023-01-20T23:14:12.626Z,-1.90
2023-01-20T23:16:41.751Z,-2.00
2023-01-20T23:19:10.809Z,-2.00
2023-01-20T23:21:38.768Z,-1.90
2023-01-20T23:24:08.277Z,-1.80
2023-01-20T23:26:36.183Z,-1.90
2023-01-20T23:29:05.220Z,-1.80
2023-01-20T23:31:35.198Z,-1.80
2023-01-20T23:34:03.414Z,-2.00
2023-01-20T23:36:31.394Z,-2.00
2023-01-20T23:38:59.369Z,-1.80
2023-01-20T23:41:27.400Z,-1.80
2023-01-20T23:43:55.303Z,-1.80
2023-01-20T23:46:23.225Z,-1.70
2023-01-20T23:48:52.549Z,-1.70
2023-01-20T23:51:20.817Z,-1.70
2023-01-20T23:53:48.811Z,-1.90
2023-01-20T23:56:19.761Z,-1.80
2023-01-20T23:58:48.315Z,-1.70
